createdAt,value
2018-08-24T00:02:06.107Z,4.75
2018-08-24T00:04:34.165Z,4.80
2018-08-24T00:07:02.245Z,5.07
2018-08-24T00:09:30.337Z,5.80
2018-08-24T00:11:58.401Z,4.70
2018-08-24T00:14:26.477Z,5.97
2018-08-24T00:16:54.546Z,5.40
2018-08-24T00:19:22.630Z,5.13
2018-08-24T00:21:50.692Z,5.37
2018-08-24T00:24:18.793Z,5.47
2018-08-24T00:26:46.852Z,5.43
2018-08-24T00:29:14.941Z,5.80
2018-08-24T00:31:43.016Z,5.40
2018-08-24T00:34:11.094Z,5.53
2018-08-24T00:36:39.160Z,5.30
2018-08-24T00:39:08.432Z,5.43
2018-08-24T00:41:36.722Z,4.90
2018-08-24T00:44:04.805Z,4.90
2018-08-24T00:46:32.877Z,5.30
2018-08-24T00:49:01.213Z,5.50
2018-08-24T00:51:29.281Z,5.13
2018-08-24T00:53:57.356Z,4.90
2018-08-24T00:56:25.427Z,5.10
2018-08-24T00:58:53.510Z,5.50
2018-08-24T01:01:21.594Z,5.83
2018-08-24T01:03:49.673Z,5.07
2018-08-24T01:06:24.374Z,5.43
2018-08-24T01:08:52.548Z,4.37
2018-08-24T01:11:24.873Z,5.90
2018-08-24T01:13:53.336Z,4.63
2018-08-24T01:16:26.771Z,4.83
2018-08-24T01:18:54.858Z,4.83
2018-08-24T01:21:22.947Z,5.23
2018-08-24T01:23:51.169Z,4.73
2018-08-24T01:26:23.482Z,5.50
2018-08-24T01:28:52.174Z,5.10
2018-08-24T01:31:20.265Z,4.70
2018-08-24T01:33:48.345Z,5.53
2018-08-24T01:36:16.421Z,5.70
2018-08-24T01:38:44.527Z,5.17
2018-08-24T01:41:12.598Z,5.83
2018-08-24T01:43:40.676Z,5.30
2018-08-24T01:46:11.944Z,4.77
2018-08-24T01:48:40.732Z,5.40
2018-08-24T01:51:08.813Z,5.90
2018-08-24T01:53:36.897Z,5.43
2018-08-24T01:56:05.098Z,6.10
2018-08-24T01:58:33.187Z,6.00
2018-08-24T02:01:01.277Z,6.10
2018-08-24T02:03:29.336Z,6.17
2018-08-24T02:06:02.800Z,6.07
2018-08-24T02:08:30.881Z,5.60
2018-08-24T02:10:58.970Z,5.57
2018-08-24T02:13:32.292Z,6.00
2018-08-24T02:16:00.374Z,6.00
2018-08-24T02:18:33.867Z,5.67
2018-08-24T02:21:07.490Z,6.10
2018-08-24T02:23:35.561Z,5.30
2018-08-24T02:26:03.642Z,6.10
2018-08-24T02:28:31.721Z,5.17
2018-08-24T02:31:01.257Z,6.33
2018-08-24T02:33:33.894Z,6.00
2018-08-24T02:36:01.969Z,5.60
2018-08-24T02:38:30.036Z,5.70
2018-08-24T02:40:58.115Z,5.20
2018-08-24T02:43:26.185Z,6.40
2018-08-24T02:45:54.270Z,7.10
2018-08-24T02:48:22.472Z,6.53
2018-08-24T02:50:50.557Z,5.50
2018-08-24T02:53:18.636Z,6.03
2018-08-24T02:55:46.713Z,7.27
2018-08-24T02:58:14.794Z,5.80
2018-08-24T03:00:42.908Z,7.00
2018-08-24T03:03:10.988Z,5.63
2018-08-24T03:05:39.273Z,6.27
2018-08-24T03:08:07.401Z,6.37
2018-08-24T03:10:35.450Z,6.20
2018-08-24T03:13:03.529Z,6.57
2018-08-24T03:15:31.606Z,6.20
2018-08-24T03:17:59.705Z,5.90
2018-08-24T03:20:27.806Z,6.10
2018-08-24T03:22:56.168Z,6.60
2018-08-24T03:25:25.225Z,6.10
2018-08-24T03:27:53.297Z,6.50
2018-08-24T03:30:21.382Z,5.93
2018-08-24T03:32:49.452Z,6.37
2018-08-24T03:35:17.545Z,6.40
2018-08-24T03:37:45.617Z,6.10
2018-08-24T03:40:13.705Z,7.40
2018-08-24T03:42:41.778Z,6.77
2018-08-24T03:45:09.849Z,5.60
2018-08-24T03:47:37.934Z,6.13
2018-08-24T03:50:06.017Z,6.60
2018-08-24T03:52:34.101Z,6.23
2018-08-24T03:55:02.169Z,6.30
2018-08-24T03:57:30.258Z,7.13
2018-08-24T03:59:58.319Z,6.60
2018-08-24T04:02:26.618Z,5.77
2018-08-24T04:04:55.704Z,6.17
2018-08-24T04:07:23.792Z,5.80
2018-08-24T04:09:51.885Z,6.47
2018-08-24T04:12:19.977Z,5.90
2018-08-24T04:14:48.056Z,6.03
2018-08-24T04:17:50.745Z,6.50
2018-08-24T04:20:18.825Z,6.77
2018-08-24T04:22:46.911Z,5.87
2018-08-24T04:25:14.986Z,6.73
2018-08-24T04:27:43.070Z,6.87
2018-08-24T04:30:11.666Z,6.00
2018-08-24T04:32:39.745Z,7.37
2018-08-24T04:35:07.875Z,7.80
2018-08-24T04:37:36.325Z,6.80
2018-08-24T04:40:04.837Z,6.77
2018-08-24T04:42:32.877Z,6.73
2018-08-24T04:45:00.966Z,7.00
2018-08-24T04:47:29.094Z,6.03
2018-08-24T04:49:57.181Z,6.37
2018-08-24T04:52:25.261Z,6.90
2018-08-24T04:54:53.373Z,6.73
2018-08-24T04:57:21.784Z,6.30
2018-08-24T04:59:49.884Z,7.20
2018-08-24T05:02:17.998Z,6.00
2018-08-24T05:04:46.069Z,6.37
2018-08-24T05:07:14.184Z,7.27
2018-08-24T05:09:42.280Z,6.43
2018-08-24T05:12:10.357Z,6.70
2018-08-24T05:14:38.467Z,6.43
2018-08-24T05:17:06.563Z,5.70
2018-08-24T05:19:34.627Z,5.50
2018-08-24T05:22:02.710Z,5.80
2018-08-24T05:24:30.773Z,5.93
2018-08-24T05:26:58.853Z,6.00
2018-08-24T05:29:26.925Z,5.83
2018-08-24T05:31:55.004Z,5.77
2018-08-24T05:34:23.113Z,5.17
2018-08-24T05:36:51.193Z,5.00
2018-08-24T05:39:19.264Z,5.10
2018-08-24T05:41:47.541Z,6.33
2018-08-24T05:44:15.616Z,5.33
2018-08-24T05:46:43.709Z,5.17
2018-08-24T05:49:11.781Z,4.87
2018-08-24T05:51:39.837Z,4.33
2018-08-24T05:54:07.921Z,4.77
2018-08-24T05:56:35.989Z,5.20
2018-08-24T05:59:04.067Z,5.03
2018-08-24T06:01:32.149Z,4.87
2018-08-24T06:04:00.229Z,5.07
2018-08-24T06:06:28.301Z,4.73
2018-08-24T06:09:01.789Z,4.90
2018-08-24T06:11:29.861Z,5.00
2018-08-24T06:13:57.940Z,4.70
2018-08-24T06:16:26.017Z,4.97
2018-08-24T06:18:54.119Z,4.87
2018-08-24T06:21:22.205Z,5.20
2018-08-24T06:23:50.290Z,4.50
2018-08-24T06:26:18.374Z,4.90
2018-08-24T06:28:46.462Z,5.40
2018-08-24T06:31:14.783Z,4.70
2018-08-24T06:33:42.878Z,4.73
2018-08-24T06:36:10.984Z,5.30
2018-08-24T06:38:39.056Z,5.00
2018-08-24T06:41:07.368Z,4.60
2018-08-24T06:43:35.777Z,4.80
2018-08-24T06:46:03.861Z,5.10
2018-08-24T06:48:32.473Z,4.63
2018-08-24T06:51:00.554Z,4.67
2018-08-24T06:53:28.675Z,4.40
2018-08-24T06:55:56.729Z,4.10
2018-08-24T06:58:24.925Z,3.70
2018-08-24T07:00:52.938Z,3.97
2018-08-24T07:03:21.245Z,3.63
2018-08-24T07:05:49.360Z,3.47
2018-08-24T07:08:17.409Z,3.83
2018-08-24T07:10:45.494Z,3.97
2018-08-24T07:13:13.571Z,3.20
2018-08-24T07:15:41.638Z,3.10
2018-08-24T07:18:09.721Z,3.50
2018-08-24T07:20:37.806Z,2.80
2018-08-24T07:23:05.889Z,3.30
2018-08-24T07:25:33.957Z,2.87
2018-08-24T07:28:02.031Z,2.40
2018-08-24T07:30:30.114Z,3.00
2018-08-24T07:32:58.197Z,2.97
2018-08-24T07:35:26.458Z,2.67
2018-08-24T07:37:54.537Z,2.57
2018-08-24T07:40:22.763Z,2.33
2018-08-24T07:42:51.056Z,2.60
2018-08-24T07:45:19.146Z,2.57
2018-08-24T07:47:47.226Z,2.80
2018-08-24T07:50:15.304Z,2.70
2018-08-24T07:52:43.675Z,3.30
2018-08-24T07:55:11.732Z,3.50
2018-08-24T07:57:39.811Z,2.90
2018-08-24T08:00:07.905Z,3.00
2018-08-24T08:02:41.338Z,2.87
2018-08-24T08:05:09.441Z,3.03
2018-08-24T08:07:37.512Z,3.30
2018-08-24T08:10:06.593Z,3.10
2018-08-24T08:12:34.723Z,3.27
2018-08-24T08:15:07.321Z,3.17
2018-08-24T08:17:35.737Z,2.80
2018-08-24T08:20:04.299Z,2.87
2018-08-24T08:22:32.378Z,2.97
2018-08-24T08:25:00.469Z,3.77
2018-08-24T08:27:28.584Z,3.30
2018-08-24T08:29:58.581Z,3.83
2018-08-24T08:32:27.153Z,4.00
2018-08-24T08:34:55.241Z,4.47
2018-08-24T08:37:23.825Z,4.53
2018-08-24T08:39:52.502Z,3.93
2018-08-24T08:42:21.501Z,4.83
2018-08-24T08:44:49.631Z,6.17
2018-08-24T08:47:17.724Z,6.30
2018-08-24T08:49:45.815Z,5.23
2018-08-24T08:52:13.918Z,6.67
2018-08-24T08:54:41.998Z,6.63
2018-08-24T08:57:10.133Z,6.30
2018-08-24T08:59:38.274Z,6.90
2018-08-24T09:02:08.585Z,7.33
2018-08-24T09:04:36.710Z,6.60
2018-08-24T09:07:04.840Z,7.60
2018-08-24T09:09:32.913Z,7.60
2018-08-24T09:12:01.262Z,8.27
2018-08-24T09:14:29.340Z,8.03
2018-08-24T09:16:57.442Z,8.80
2018-08-24T09:19:30.976Z,8.20
2018-08-24T09:22:04.380Z,9.10
2018-08-24T09:24:37.846Z,7.80
2018-08-24T09:27:11.390Z,6.47
2018-08-24T09:29:39.464Z,9.30
2018-08-24T09:32:07.550Z,9.23
2018-08-24T09:34:35.656Z,9.60
2018-08-24T09:37:07.973Z,9.53
2018-08-24T09:39:36.060Z,10.30
2018-08-24T09:42:04.156Z,9.60
2018-08-24T09:44:32.229Z,9.17
2018-08-24T09:47:05.530Z,9.43
2018-08-24T09:49:36.365Z,11.40
2018-08-24T09:52:09.885Z,7.63
2018-08-24T09:54:37.976Z,9.20
2018-08-24T09:57:06.330Z,8.80
2018-08-24T09:59:34.456Z,8.50
2018-08-24T10:02:08.004Z,9.70
2018-08-24T10:04:41.584Z,8.87
2018-08-24T10:07:15.113Z,8.70
2018-08-24T10:09:43.185Z,9.30
2018-08-24T10:12:11.257Z,8.90
2018-08-24T10:14:39.570Z,10.07
2018-08-24T10:17:07.653Z,9.23
2018-08-24T10:19:35.722Z,8.60
2018-08-24T10:22:03.814Z,7.60
2018-08-24T10:24:31.881Z,7.83
2018-08-24T10:26:59.957Z,7.67
2018-08-24T10:29:28.079Z,8.17
2018-08-24T10:31:56.115Z,8.33
2018-08-24T10:34:24.193Z,8.03
2018-08-24T10:36:52.278Z,7.40
2018-08-24T10:39:20.357Z,7.67
2018-08-24T10:41:48.442Z,7.13
2018-08-24T10:44:16.526Z,8.23
2018-08-24T10:46:44.601Z,7.27
2018-08-24T10:49:12.719Z,6.67
2018-08-24T10:51:40.766Z,6.30
2018-08-24T10:54:08.859Z,6.10
2018-08-24T10:56:36.929Z,7.23
2018-08-24T10:59:05.034Z,7.17
2018-08-24T11:01:33.134Z,6.13
2018-08-24T11:04:01.249Z,7.10
2018-08-24T11:06:29.317Z,6.33
2018-08-24T11:08:57.399Z,6.30
2018-08-24T11:11:25.630Z,5.93
2018-08-24T11:13:53.713Z,7.00
2018-08-24T11:16:21.810Z,5.70
2018-08-24T11:18:49.895Z,6.20
2018-08-24T11:21:17.966Z,5.60
2018-08-24T11:23:46.041Z,5.90
2018-08-24T11:26:14.145Z,6.83
2018-08-24T11:28:42.244Z,6.30
2018-08-24T11:31:10.256Z,5.73
2018-08-24T11:33:38.345Z,6.67
2018-08-24T11:36:06.505Z,6.60
2018-08-24T11:38:34.504Z,7.27
2018-08-24T11:41:02.669Z,6.10
2018-08-24T11:43:30.756Z,6.53
2018-08-24T11:45:58.838Z,6.50
2018-08-24T11:48:28.338Z,6.10
2018-08-24T11:50:57.113Z,6.30
2018-08-24T11:53:25.434Z,6.20
2018-08-24T11:55:53.529Z,6.17
2018-08-24T11:58:21.617Z,6.50
2018-08-24T12:00:49.698Z,5.90
2018-08-24T12:03:17.786Z,5.70
2018-08-24T12:05:45.890Z,6.03
2018-08-24T12:08:14.000Z,5.83
2018-08-24T12:10:42.042Z,5.00
2018-08-24T12:13:10.116Z,5.90
2018-08-24T12:15:38.208Z,6.10
2018-08-24T12:18:06.290Z,5.90
2018-08-24T12:20:34.361Z,5.93
2018-08-24T12:23:02.453Z,5.73
2018-08-24T12:25:30.545Z,6.03
2018-08-24T12:27:58.643Z,5.43
2018-08-24T12:30:26.734Z,5.60
2018-08-24T12:32:54.825Z,5.10
2018-08-24T12:35:22.934Z,5.20
2018-08-24T12:37:51.047Z,6.20
2018-08-24T12:40:20.001Z,4.60
2018-08-24T12:42:48.092Z,5.23
2018-08-24T12:45:16.178Z,5.67
2018-08-24T12:47:44.253Z,5.77
2018-08-24T12:50:12.534Z,5.80
2018-08-24T12:52:40.597Z,5.13
2018-08-24T12:55:08.676Z,6.30
2018-08-24T12:57:37.059Z,5.50
2018-08-24T13:00:05.340Z,5.27
2018-08-24T13:02:33.562Z,5.73
2018-08-24T13:05:01.629Z,5.33
2018-08-24T13:07:29.747Z,5.53
2018-08-24T13:09:57.857Z,5.60
2018-08-24T13:12:25.938Z,5.33
2018-08-24T13:14:54.038Z,5.17
2018-08-24T13:17:22.097Z,5.00
2018-08-24T13:19:50.190Z,5.47
2018-08-24T13:22:18.281Z,5.47
2018-08-24T13:24:46.383Z,5.90
2018-08-24T13:27:14.467Z,5.55
2018-08-24T13:29:42.574Z,5.17
2018-08-24T13:32:10.653Z,5.10
2018-08-24T13:34:38.881Z,5.63
2018-08-24T13:37:07.117Z,5.47
2018-08-24T13:39:35.293Z,4.80
2018-08-24T13:42:03.869Z,5.20
2018-08-24T13:44:32.462Z,5.83
2018-08-24T13:47:00.703Z,5.83
2018-08-24T13:49:29.112Z,5.90
2018-08-24T13:51:57.237Z,4.77
2018-08-24T13:54:25.385Z,5.03
2018-08-24T13:56:53.477Z,5.23
2018-08-24T13:59:21.704Z,5.23
2018-08-24T14:01:49.767Z,5.40
2018-08-24T14:04:17.852Z,4.97
2018-08-24T14:06:45.947Z,4.80
2018-08-24T14:09:14.074Z,4.70
2018-08-24T14:11:43.174Z,4.90
2018-08-24T14:14:11.258Z,5.70
2018-08-24T14:16:39.421Z,5.83
2018-08-24T14:19:07.706Z,5.20
2018-08-24T14:21:37.021Z,5.50
2018-08-24T14:24:05.392Z,5.50
2018-08-24T14:26:33.532Z,6.10
2018-08-24T14:29:01.646Z,6.00
2018-08-24T14:31:29.788Z,5.70
2018-08-24T14:33:57.889Z,6.73
2018-08-24T14:36:26.037Z,5.50
2018-08-24T14:38:54.146Z,5.63
2018-08-24T14:41:22.386Z,6.07
2018-08-24T14:43:50.525Z,5.60
2018-08-24T14:46:18.668Z,5.73
2018-08-24T14:48:46.728Z,5.80
2018-08-24T14:51:14.816Z,5.83
2018-08-24T14:53:42.925Z,5.30
2018-08-24T14:56:11.010Z,5.90
2018-08-24T14:58:39.273Z,4.30
2018-08-24T15:01:07.361Z,5.37
2018-08-24T15:03:35.433Z,5.23
2018-08-24T15:06:03.521Z,4.97
2018-08-24T15:08:31.598Z,6.23
2018-08-24T15:10:59.678Z,6.00
2018-08-24T15:13:27.758Z,5.90
2018-08-24T15:15:55.841Z,5.07
2018-08-24T15:18:23.970Z,4.80
2018-08-24T15:20:52.057Z,5.33
2018-08-24T15:23:20.133Z,5.20
2018-08-24T15:25:48.220Z,4.80
2018-08-24T15:28:16.295Z,4.67
2018-08-24T15:30:44.389Z,4.63
2018-08-24T15:33:12.466Z,4.50
2018-08-24T15:35:40.557Z,5.17
2018-08-24T15:38:08.650Z,4.60
2018-08-24T15:40:36.763Z,5.07
2018-08-24T15:43:05.001Z,5.80
2018-08-24T15:45:33.071Z,4.27
2018-08-24T15:48:01.150Z,4.13
2018-08-24T15:50:29.394Z,4.80
2018-08-24T15:52:57.472Z,4.40
2018-08-24T15:55:25.562Z,5.00
2018-08-24T15:57:53.641Z,4.80
2018-08-24T16:00:21.738Z,4.33
2018-08-24T16:02:49.830Z,4.30
2018-08-24T16:05:17.921Z,4.13
2018-08-24T16:07:46.009Z,4.17
2018-08-24T16:10:14.105Z,4.90
2018-08-24T16:12:42.193Z,3.80
2018-08-24T16:15:10.281Z,3.77
2018-08-24T16:17:38.340Z,4.47
2018-08-24T16:20:06.426Z,4.67
2018-08-24T16:22:34.517Z,4.73
2018-08-24T16:25:02.590Z,4.90
2018-08-24T16:27:32.881Z,4.37
2018-08-24T16:30:01.004Z,3.93
2018-08-24T16:32:29.132Z,5.10
2018-08-24T16:34:57.160Z,4.30
2018-08-24T16:37:25.261Z,4.47
2018-08-24T16:39:53.337Z,4.73
2018-08-24T16:42:21.589Z,5.00
2018-08-24T16:44:49.686Z,5.13
2018-08-24T16:47:17.753Z,4.43
2018-08-24T16:49:45.857Z,4.10
2018-08-24T16:52:13.925Z,4.80
2018-08-24T16:54:42.000Z,4.43
2018-08-24T16:57:10.078Z,4.30
2018-08-24T16:59:38.452Z,5.67
2018-08-24T17:02:06.579Z,4.23
2018-08-24T17:04:34.661Z,4.30
2018-08-24T17:07:02.750Z,5.03
2018-08-24T17:09:30.836Z,4.53
2018-08-24T17:11:58.937Z,4.87
2018-08-24T17:14:27.005Z,4.40
2018-08-24T17:16:55.092Z,4.20
2018-08-24T17:19:23.156Z,4.63
2018-08-24T17:21:51.245Z,4.03
2018-08-24T17:24:19.353Z,5.07
2018-08-24T17:26:47.445Z,3.80
2018-08-24T17:29:15.516Z,4.60
2018-08-24T17:31:43.605Z,3.97
2018-08-24T17:34:11.672Z,4.93
2018-08-24T17:36:39.764Z,4.50
2018-08-24T17:39:09.693Z,3.60
2018-08-24T17:41:37.800Z,4.53
2018-08-24T17:44:05.893Z,4.37
2018-08-24T17:46:33.973Z,3.60
2018-08-24T17:49:02.264Z,4.17
2018-08-24T17:51:30.358Z,3.70
2018-08-24T17:53:58.443Z,4.20
2018-08-24T17:56:26.524Z,4.87
2018-08-24T17:58:54.617Z,3.80
2018-08-24T18:01:22.725Z,4.40
2018-08-24T18:03:50.803Z,3.93
2018-08-24T18:06:18.880Z,4.10
2018-08-24T18:08:46.948Z,4.43
2018-08-24T18:11:15.049Z,4.17
2018-08-24T18:13:43.144Z,4.50
2018-08-24T18:16:11.234Z,4.47
2018-08-24T18:18:39.336Z,3.90
2018-08-24T18:21:07.642Z,4.83
2018-08-24T18:23:35.713Z,4.20
2018-08-24T18:26:03.806Z,4.07
2018-08-24T18:28:31.894Z,4.57
2018-08-24T18:30:59.977Z,4.63
2018-08-24T18:33:28.048Z,4.37
2018-08-24T18:35:56.138Z,4.13
2018-08-24T18:38:24.278Z,4.27
2018-08-24T18:40:52.381Z,3.60
2018-08-24T18:43:20.453Z,4.20
2018-08-24T18:45:48.528Z,4.30
2018-08-24T18:48:16.604Z,4.00
2018-08-24T18:50:44.997Z,4.10
2018-08-24T18:53:13.115Z,3.90
2018-08-24T18:55:41.302Z,3.87
2018-08-24T18:58:09.722Z,3.90
2018-08-24T19:00:37.810Z,3.53
2018-08-24T19:03:05.891Z,4.10
2018-08-24T19:05:34.039Z,3.93
2018-08-24T19:08:07.441Z,3.67
2018-08-24T19:10:41.013Z,3.77
2018-08-24T19:13:09.109Z,3.50
2018-08-24T19:15:37.189Z,3.10
2018-08-24T19:18:10.588Z,3.03
2018-08-24T19:20:44.211Z,3.30
2018-08-24T19:23:12.262Z,2.60
2018-08-24T19:25:40.373Z,2.97
2018-08-24T19:28:13.992Z,3.20
2018-08-24T19:30:42.074Z,3.50
2018-08-24T19:33:10.186Z,2.83
2018-08-24T19:35:38.261Z,3.57
2018-08-24T19:38:06.342Z,2.70
2018-08-24T19:40:39.961Z,2.90
2018-08-24T19:43:08.037Z,2.60
2018-08-24T19:45:36.113Z,3.10
2018-08-24T19:48:09.778Z,3.23
2018-08-24T19:50:37.797Z,2.53
2018-08-24T19:53:05.877Z,2.63
2018-08-24T19:55:33.958Z,2.40
2018-08-24T19:58:07.510Z,2.80
2018-08-24T20:00:35.586Z,2.77
2018-08-24T20:03:03.658Z,2.90
2018-08-24T20:05:31.751Z,2.27
2018-08-24T20:08:05.322Z,2.70
2018-08-24T20:10:33.400Z,2.40
2018-08-24T20:13:01.504Z,2.50
2018-08-24T20:15:35.094Z,3.20
2018-08-24T20:18:03.337Z,2.80
2018-08-24T20:20:31.410Z,2.80
2018-08-24T20:22:59.499Z,2.57
2018-08-24T20:25:27.553Z,3.00
2018-08-24T20:27:55.634Z,3.17
2018-08-24T20:30:23.717Z,2.40
2018-08-24T20:32:51.803Z,2.90
2018-08-24T20:35:19.866Z,2.93
2018-08-24T20:37:47.948Z,2.60
2018-08-24T20:40:16.024Z,2.67
2018-08-24T20:42:44.113Z,2.43
2018-08-24T20:45:12.181Z,2.83
2018-08-24T20:47:40.278Z,2.53
2018-08-24T20:50:08.341Z,3.03
2018-08-24T20:52:36.413Z,2.90
2018-08-24T20:55:04.688Z,2.47
2018-08-24T20:57:32.761Z,2.40
2018-08-24T21:00:01.133Z,2.57
2018-08-24T21:02:29.234Z,2.83
2018-08-24T21:04:57.312Z,2.83
2018-08-24T21:07:25.389Z,2.20
2018-08-24T21:09:53.469Z,3.00
2018-08-24T21:12:21.549Z,2.83
2018-08-24T21:14:49.666Z,2.33
2018-08-24T21:17:18.057Z,2.30
2018-08-24T21:19:46.326Z,3.23
2018-08-24T21:22:14.401Z,2.20
2018-08-24T21:24:42.499Z,2.70
2018-08-24T21:27:10.569Z,2.70
2018-08-24T21:29:38.636Z,2.70
2018-08-24T21:32:06.708Z,2.20
2018-08-24T21:34:34.786Z,2.37
2018-08-24T21:37:02.928Z,2.40
2018-08-24T21:39:30.981Z,2.03
2018-08-24T21:41:59.081Z,2.17
2018-08-24T21:44:27.121Z,2.23
2018-08-24T21:46:55.192Z,1.90
2018-08-24T21:49:23.267Z,2.87
2018-08-24T21:51:51.541Z,2.17
2018-08-24T21:54:19.616Z,2.57
2018-08-24T21:56:47.679Z,2.23
2018-08-24T21:59:15.753Z,2.40
2018-08-24T22:01:43.844Z,2.43
2018-08-24T22:04:11.967Z,2.27
2018-08-24T22:06:40.034Z,2.37
2018-08-24T22:09:08.992Z,2.60
2018-08-24T22:11:37.265Z,2.40
2018-08-24T22:14:05.525Z,2.40
2018-08-24T22:16:33.590Z,2.20
2018-08-24T22:19:01.893Z,2.50
2018-08-24T22:21:29.953Z,2.07
2018-08-24T22:23:58.030Z,2.50
2018-08-24T22:26:26.379Z,1.87
2018-08-24T22:28:54.462Z,2.33
2018-08-24T22:31:22.530Z,2.60
2018-08-24T22:33:50.611Z,2.70
2018-08-24T22:36:18.680Z,2.50
2018-08-24T22:38:46.761Z,2.83
2018-08-24T22:41:14.884Z,2.40
2018-08-24T22:43:42.969Z,2.50
2018-08-24T22:46:11.035Z,2.43
2018-08-24T22:48:39.108Z,3.30
2018-08-24T22:51:07.381Z,3.30
2018-08-24T22:53:35.756Z,2.33
2018-08-24T22:56:03.800Z,2.37
2018-08-24T22:58:31.878Z,2.40
2018-08-24T23:00:59.968Z,1.87
2018-08-24T23:03:28.037Z,2.03
2018-08-24T23:05:56.117Z,2.77
2018-08-24T23:08:24.221Z,1.87
2018-08-24T23:10:52.304Z,2.17
2018-08-24T23:13:20.381Z,2.30
2018-08-24T23:15:48.470Z,2.23
2018-08-24T23:18:16.554Z,2.20
2018-08-24T23:20:44.641Z,2.20
2018-08-24T23:23:12.723Z,2.80
2018-08-24T23:25:40.795Z,2.80
2018-08-24T23:28:08.865Z,2.23
2018-08-24T23:30:36.946Z,3.00
2018-08-24T23:33:05.013Z,2.57
2018-08-24T23:35:33.093Z,2.30
2018-08-24T23:38:01.172Z,2.13
2018-08-24T23:40:29.613Z,2.07
2018-08-24T23:42:57.719Z,2.40
2018-08-24T23:45:25.838Z,2.23
2018-08-24T23:47:53.912Z,2.13
2018-08-24T23:50:21.998Z,2.23
2018-08-24T23:52:50.093Z,1.70
2018-08-24T23:55:18.177Z,2.17
2018-08-24T23:57:46.253Z,2.37
